sensor_id;sensor_type;location;lat;lon;timestamp;temperature;humidity
23347;DHT22;36852;45.466;11.066;2023-05-03T00:01:47;17.70;99.90
23347;DHT22;36852;45.466;11.066;2023-05-03T00:04:15;17.70;99.90
23347;DHT22;36852;45.466;11.066;2023-05-03T00:06:44;17.70;99.90
23347;DHT22;36852;45.466;11.066;2023-05-03T00:09:12;17.70;99.90
23347;DHT22;36852;45.466;11.066;2023-05-03T00:11:41;17.70;99.90
23347;DHT22;36852;45.466;11.066;2023-05-03T00:14:09;17.60;99.90
23347;DHT22;36852;45.466;11.066;2023-05-03T00:16:37;17.70;99.90
23347;DHT22;36852;45.466;11.066;2023-05-03T00:19:04;17.70;99.90
23347;DHT22;36852;45.466;11.066;2023-05-03T00:21:34;17.70;99.90
23347;DHT22;36852;45.466;11.066;2023-05-03T00:24:02;17.70;99.90
23347;DHT22;36852;45.466;11.066;2023-05-03T00:26:30;17.70;99.90
23347;DHT22;36852;45.466;11.066;2023-05-03T00:28:57;17.60;99.90
23347;DHT22;36852;45.466;11.066;2023-05-03T00:31:45;17.60;99.90
23347;DHT22;36852;45.466;11.066;2023-05-03T00:34:13;17.60;99.90
23347;DHT22;36852;45.466;11.066;2023-05-03T00:36:45;17.60;99.90
23347;DHT22;36852;45.466;11.066;2023-05-03T00:39:13;17.60;99.90
23347;DHT22;36852;45.466;11.066;2023-05-03T00:41:40;17.60;99.90
23347;DHT22;36852;45.466;11.066;2023-05-03T00:44:08;17.50;99.90
23347;DHT22;36852;45.466;11.066;2023-05-03T00:46:36;17.50;99.90
23347;DHT22;36852;45.466;11.066;2023-05-03T00:49:05;17.50;99.90
23347;DHT22;36852;45.466;11.066;2023-05-03T00:51:33;17.50;99.90
23347;DHT22;36852;45.466;11.066;2023-05-03T00:54:00;17.50;99.90
23347;DHT22;36852;45.466;11.066;2023-05-03T00:56:28;17.50;99.90
23347;DHT22;36852;45.466;11.066;2023-05-03T00:58:59;17.40;99.90
23347;DHT22;36852;45.466;11.066;2023-05-03T01:01:28;17.40;99.90
23347;DHT22;36852;45.466;11.066;2023-05-03T01:04:00;17.40;99.90
23347;DHT22;36852;45.466;11.066;2023-05-03T01:18:20;17.30;99.90
23347;DHT22;36852;45.466;11.066;2023-05-03T01:20:49;17.30;99.90
23347;DHT22;36852;45.466;11.066;2023-05-03T01:23:32;17.30;99.90
23347;DHT22;36852;45.466;11.066;2023-05-03T01:25:57;17.30;99.90
23347;DHT22;36852;45.466;11.066;2023-05-03T01:28:25;17.30;99.90
23347;DHT22;36852;45.466;11.066;2023-05-03T01:30:52;17.30;99.90
23347;DHT22;36852;45.466;11.066;2023-05-03T01:33:43;17.20;99.90
23347;DHT22;36852;45.466;11.066;2023-05-03T01:36:19;17.20;99.90
23347;DHT22;36852;45.466;11.066;2023-05-03T01:38:45;17.20;99.90
23347;DHT22;36852;45.466;11.066;2023-05-03T01:41:15;17.20;99.90
23347;DHT22;36852;45.466;11.066;2023-05-03T01:43:45;17.20;99.90
23347;DHT22;36852;45.466;11.066;2023-05-03T01:46:16;17.20;99.90
23347;DHT22;36852;45.466;11.066;2023-05-03T01:48:43;17.20;99.90
23347;DHT22;36852;45.466;11.066;2023-05-03T01:51:11;17.10;99.90
23347;DHT22;36852;45.466;11.066;2023-05-03T01:53:41;17.10;99.90
23347;DHT22;36852;45.466;11.066;2023-05-03T01:56:08;17.20;99.90
23347;DHT22;36852;45.466;11.066;2023-05-03T02:01:17;17.10;99.90
23347;DHT22;36852;45.466;11.066;2023-05-03T02:03:44;17.10;99.90
23347;DHT22;36852;45.466;11.066;2023-05-03T02:06:12;17.10;99.90
23347;DHT22;36852;45.466;11.066;2023-05-03T02:08:39;17.00;99.90
23347;DHT22;36852;45.466;11.066;2023-05-03T02:11:07;17.10;99.90
23347;DHT22;36852;45.466;11.066;2023-05-03T02:13:36;17.00;99.90
23347;DHT22;36852;45.466;11.066;2023-05-03T02:16:05;17.00;99.90
23347;DHT22;36852;45.466;11.066;2023-05-03T02:18:33;17.00;99.90
23347;DHT22;36852;45.466;11.066;2023-05-03T02:21:13;17.00;99.90
23347;DHT22;36852;45.466;11.066;2023-05-03T02:23:41;17.00;99.90
23347;DHT22;36852;45.466;11.066;2023-05-03T02:26:08;17.00;99.90
23347;DHT22;36852;45.466;11.066;2023-05-03T02:28:37;16.90;99.90
23347;DHT22;36852;45.466;11.066;2023-05-03T02:31:05;16.90;99.90
23347;DHT22;36852;45.466;11.066;2023-05-03T02:33:32;16.90;99.90
23347;DHT22;36852;45.466;11.066;2023-05-03T02:36:00;16.90;99.90
23347;DHT22;36852;45.466;11.066;2023-05-03T02:38:28;16.90;99.90
23347;DHT22;36852;45.466;11.066;2023-05-03T02:40:56;16.90;99.90
23347;DHT22;36852;45.466;11.066;2023-05-03T02:43:24;16.90;99.90
23347;DHT22;36852;45.466;11.066;2023-05-03T02:45:51;16.90;99.90
23347;DHT22;36852;45.466;11.066;2023-05-03T02:48:39;16.90;99.90
23347;DHT22;36852;45.466;11.066;2023-05-03T02:51:06;16.90;99.90
23347;DHT22;36852;45.466;11.066;2023-05-03T02:53:34;16.90;99.90
23347;DHT22;36852;45.466;11.066;2023-05-03T02:56:02;16.90;99.90
23347;DHT22;36852;45.466;11.066;2023-05-03T02:58:29;16.90;99.90
23347;DHT22;36852;45.466;11.066;2023-05-03T03:00:59;16.80;99.90
23347;DHT22;36852;45.466;11.066;2023-05-03T03:03:31;16.80;99.90
23347;DHT22;36852;45.466;11.066;2023-05-03T03:05:59;16.80;99.90
23347;DHT22;36852;45.466;11.066;2023-05-03T03:08:27;16.80;99.90
23347;DHT22;36852;45.466;11.066;2023-05-03T03:10:56;16.80;99.90
23347;DHT22;36852;45.466;11.066;2023-05-03T03:13:24;16.80;99.90
23347;DHT22;36852;45.466;11.066;2023-05-03T03:15:53;16.80;99.90
23347;DHT22;36852;45.466;11.066;2023-05-03T03:18:20;16.80;99.90
23347;DHT22;36852;45.466;11.066;2023-05-03T03:20:48;16.80;99.90
23347;DHT22;36852;45.466;11.066;2023-05-03T03:23:17;16.80;99.90
23347;DHT22;36852;45.466;11.066;2023-05-03T03:25:46;16.80;99.90
23347;DHT22;36852;45.466;11.066;2023-05-03T03:28:14;16.80;99.90
23347;DHT22;36852;45.466;11.066;2023-05-03T03:30:42;16.80;99.90
23347;DHT22;36852;45.466;11.066;2023-05-03T03:33:12;16.80;99.90
23347;DHT22;36852;45.466;11.066;2023-05-03T03:35:40;16.80;99.90
23347;DHT22;36852;45.466;11.066;2023-05-03T03:38:07;16.80;99.90
23347;DHT22;36852;45.466;11.066;2023-05-03T03:40:36;16.80;99.90
23347;DHT22;36852;45.466;11.066;2023-05-03T03:43:04;16.70;99.90
23347;DHT22;36852;45.466;11.066;2023-05-03T03:45:32;16.80;99.90
23347;DHT22;36852;45.466;11.066;2023-05-03T03:48:00;16.70;99.90
23347;DHT22;36852;45.466;11.066;2023-05-03T03:50:28;16.70;99.90
23347;DHT22;36852;45.466;11.066;2023-05-03T03:52:56;16.70;99.90
23347;DHT22;36852;45.466;11.066;2023-05-03T03:55:24;16.70;99.90
23347;DHT22;36852;45.466;11.066;2023-05-03T03:57:52;16.70;99.90
23347;DHT22;36852;45.466;11.066;2023-05-03T04:00:20;16.70;99.90
23347;DHT22;36852;45.466;11.066;2023-05-03T04:02:50;16.70;99.90
23347;DHT22;36852;45.466;11.066;2023-05-03T04:05:19;16.70;99.90
23347;DHT22;36852;45.466;11.066;2023-05-03T04:07:47;16.70;99.90
23347;DHT22;36852;45.466;11.066;2023-05-03T04:10:19;16.70;99.90
23347;DHT22;36852;45.466;11.066;2023-05-03T04:12:47;16.70;99.90
23347;DHT22;36852;45.466;11.066;2023-05-03T04:15:16;16.70;99.90
23347;DHT22;36852;45.466;11.066;2023-05-03T04:17:45;16.70;99.90
23347;DHT22;36852;45.466;11.066;2023-05-03T04:20:13;16.70;99.90
23347;DHT22;36852;45.466;11.066;2023-05-03T04:22:43;16.70;99.90
23347;DHT22;36852;45.466;11.066;2023-05-03T04:25:11;16.70;99.90
23347;DHT22;36852;45.466;11.066;2023-05-03T04:27:46;16.70;99.90
23347;DHT22;36852;45.466;11.066;2023-05-03T04:30:21;16.70;99.90
23347;DHT22;36852;45.466;11.066;2023-05-03T04:32:50;16.70;99.90
23347;DHT22;36852;45.466;11.066;2023-05-03T04:35:22;16.70;99.90
23347;DHT22;36852;45.466;11.066;2023-05-03T04:37:51;16.60;99.90
23347;DHT22;36852;45.466;11.066;2023-05-03T04:40:20;16.70;99.90
23347;DHT22;36852;45.466;11.066;2023-05-03T04:42:50;16.70;99.90
23347;DHT22;36852;45.466;11.066;2023-05-03T04:45:19;16.70;99.90
23347;DHT22;36852;45.466;11.066;2023-05-03T04:47:48;16.60;99.90
23347;DHT22;36852;45.466;11.066;2023-05-03T04:50:19;16.70;99.90
23347;DHT22;36852;45.466;11.066;2023-05-03T04:52:48;16.60;99.90
23347;DHT22;36852;45.466;11.066;2023-05-03T04:55:16;16.70;99.90
23347;DHT22;36852;45.466;11.066;2023-05-03T04:57:44;16.70;99.90
23347;DHT22;36852;45.466;11.066;2023-05-03T05:00:13;16.60;99.90
23347;DHT22;36852;45.466;11.066;2023-05-03T05:02:43;16.70;99.90
23347;DHT22;36852;45.466;11.066;2023-05-03T05:05:11;16.70;99.90
23347;DHT22;36852;45.466;11.066;2023-05-03T05:07:39;16.70;99.90
23347;DHT22;36852;45.466;11.066;2023-05-03T05:10:08;16.70;99.90
23347;DHT22;36852;45.466;11.066;2023-05-03T05:12:37;16.70;99.90
23347;DHT22;36852;45.466;11.066;2023-05-03T05:15:06;16.70;99.90
23347;DHT22;36852;45.466;11.066;2023-05-03T05:17:35;16.70;99.90
23347;DHT22;36852;45.466;11.066;2023-05-03T05:20:05;16.60;99.90
23347;DHT22;36852;45.466;11.066;2023-05-03T05:22:34;16.60;99.90
23347;DHT22;36852;45.466;11.066;2023-05-03T05:25:03;16.70;99.90
23347;DHT22;36852;45.466;11.066;2023-05-03T05:27:33;16.70;99.90
23347;DHT22;36852;45.466;11.066;2023-05-03T05:30:05;16.70;99.90
23347;DHT22;36852;45.466;11.066;2023-05-03T05:32:34;16.70;99.90
23347;DHT22;36852;45.466;11.066;2023-05-03T05:35:03;16.70;99.90
23347;DHT22;36852;45.466;11.066;2023-05-03T05:37:32;16.70;99.90
23347;DHT22;36852;45.466;11.066;2023-05-03T05:40:01;16.80;99.90
23347;DHT22;36852;45.466;11.066;2023-05-03T05:42:34;16.80;99.90
23347;DHT22;36852;45.466;11.066;2023-05-03T05:45:03;16.80;99.90
23347;DHT22;36852;45.466;11.066;2023-05-03T05:47:31;16.80;99.90
23347;DHT22;36852;45.466;11.066;2023-05-03T05:50:00;16.80;99.90
23347;DHT22;36852;45.466;11.066;2023-05-03T05:52:29;16.80;99.90
23347;DHT22;36852;45.466;11.066;2023-05-03T05:54:58;16.80;99.90
23347;DHT22;36852;45.466;11.066;2023-05-03T05:57:25;16.80;99.90
23347;DHT22;36852;45.466;11.066;2023-05-03T05:59:54;16.90;99.90
23347;DHT22;36852;45.466;11.066;2023-05-03T06:02:22;16.90;99.90
23347;DHT22;36852;45.466;11.066;2023-05-03T06:04:51;16.90;99.90
23347;DHT22;36852;45.466;11.066;2023-05-03T06:07:19;17.00;99.90
23347;DHT22;36852;45.466;11.066;2023-05-03T06:09:46;17.00;99.90
23347;DHT22;36852;45.466;11.066;2023-05-03T06:12:22;17.00;99.90
23347;DHT22;36852;45.466;11.066;2023-05-03T06:14:51;17.00;99.90
23347;DHT22;36852;45.466;11.066;2023-05-03T06:17:21;17.10;99.90
23347;DHT22;36852;45.466;11.066;2023-05-03T06:19:50;17.10;99.90
23347;DHT22;36852;45.466;11.066;2023-05-03T06:22:18;17.10;99.90
23347;DHT22;36852;45.466;11.066;2023-05-03T06:24:46;17.20;99.90
23347;DHT22;36852;45.466;11.066;2023-05-03T06:27:14;17.20;99.90
23347;DHT22;36852;45.466;11.066;2023-05-03T06:29:47;17.20;99.90
23347;DHT22;36852;45.466;11.066;2023-05-03T06:32:17;17.30;99.90
23347;DHT22;36852;45.466;11.066;2023-05-03T06:34:49;17.30;99.90
23347;DHT22;36852;45.466;11.066;2023-05-03T06:37:17;17.40;99.90
23347;DHT22;36852;45.466;11.066;2023-05-03T06:39:44;17.40;99.90
23347;DHT22;36852;45.466;11.066;2023-05-03T06:42:13;17.40;99.90
23347;DHT22;36852;45.466;11.066;2023-05-03T06:44:42;17.50;99.90
23347;DHT22;36852;45.466;11.066;2023-05-03T06:47:12;17.50;99.90
23347;DHT22;36852;45.466;11.066;2023-05-03T06:49:40;17.60;99.90
23347;DHT22;36852;45.466;11.066;2023-05-03T06:52:08;17.70;99.90
23347;DHT22;36852;45.466;11.066;2023-05-03T06:54:37;17.80;99.90
23347;DHT22;36852;45.466;11.066;2023-05-03T06:57:06;17.80;99.90
23347;DHT22;36852;45.466;11.066;2023-05-03T06:59:34;17.80;99.90
23347;DHT22;36852;45.466;11.066;2023-05-03T07:02:03;17.90;99.90
23347;DHT22;36852;45.466;11.066;2023-05-03T07:04:30;18.00;99.90
23347;DHT22;36852;45.466;11.066;2023-05-03T07:07:03;18.00;99.90
23347;DHT22;36852;45.466;11.066;2023-05-03T07:09:30;18.10;99.90
23347;DHT22;36852;45.466;11.066;2023-05-03T07:12:00;18.20;99.90
23347;DHT22;36852;45.466;11.066;2023-05-03T07:14:31;18.20;99.90
23347;DHT22;36852;45.466;11.066;2023-05-03T07:16:58;18.30;99.90
23347;DHT22;36852;45.466;11.066;2023-05-03T07:19:26;18.30;99.90
23347;DHT22;36852;45.466;11.066;2023-05-03T07:21:55;18.40;99.90
23347;DHT22;36852;45.466;11.066;2023-05-03T07:24:23;18.40;99.90
23347;DHT22;36852;45.466;11.066;2023-05-03T07:26:54;18.40;99.90
23347;DHT22;36852;45.466;11.066;2023-05-03T07:29:22;18.50;99.90
23347;DHT22;36852;45.466;11.066;2023-05-03T07:31:50;18.50;99.90
23347;DHT22;36852;45.466;11.066;2023-05-03T07:34:20;18.50;99.90
23347;DHT22;36852;45.466;11.066;2023-05-03T07:36:48;18.60;99.90
23347;DHT22;36852;45.466;11.066;2023-05-03T07:39:16;18.60;99.90
23347;DHT22;36852;45.466;11.066;2023-05-03T07:42:04;18.60;99.90
23347;DHT22;36852;45.466;11.066;2023-05-03T07:44:32;18.70;99.90
23347;DHT22;36852;45.466;11.066;2023-05-03T07:47:20;18.70;99.90
23347;DHT22;36852;45.466;11.066;2023-05-03T07:49:47;18.70;99.90
23347;DHT22;36852;45.466;11.066;2023-05-03T07:52:17;18.80;99.90
23347;DHT22;36852;45.466;11.066;2023-05-03T07:54:45;18.80;99.90
23347;DHT22;36852;45.466;11.066;2023-05-03T07:57:13;18.80;99.90
23347;DHT22;36852;45.466;11.066;2023-05-03T07:59:42;18.90;99.90
23347;DHT22;36852;45.466;11.066;2023-05-03T08:02:10;18.90;99.90
23347;DHT22;36852;45.466;11.066;2023-05-03T08:04:38;18.90;99.90
23347;DHT22;36852;45.466;11.066;2023-05-03T08:07:06;18.90;99.90
23347;DHT22;36852;45.466;11.066;2023-05-03T08:09:34;19.00;99.90
23347;DHT22;36852;45.466;11.066;2023-05-03T08:12:03;19.00;99.90
23347;DHT22;36852;45.466;11.066;2023-05-03T08:14:31;19.00;99.90
23347;DHT22;36852;45.466;11.066;2023-05-03T08:17:00;19.10;99.90
23347;DHT22;36852;45.466;11.066;2023-05-03T08:22:10;19.00;99.90
23347;DHT22;36852;45.466;11.066;2023-05-03T08:24:39;19.00;99.90
23347;DHT22;36852;45.466;11.066;2023-05-03T08:27:10;19.10;99.90
23347;DHT22;36852;45.466;11.066;2023-05-03T08:29:39;19.10;99.90
23347;DHT22;36852;45.466;11.066;2023-05-03T08:32:06;19.10;99.90
23347;DHT22;36852;45.466;11.066;2023-05-03T08:34:35;19.20;99.90
23347;DHT22;36852;45.466;11.066;2023-05-03T08:37:03;19.30;99.90
23347;DHT22;36852;45.466;11.066;2023-05-03T08:39:32;19.30;99.90
23347;DHT22;36852;45.466;11.066;2023-05-03T08:42:07;19.40;99.90
23347;DHT22;36852;45.466;11.066;2023-05-03T08:44:36;19.40;99.90
23347;DHT22;36852;45.466;11.066;2023-05-03T08:47:04;19.50;99.90
23347;DHT22;36852;45.466;11.066;2023-05-03T08:49:52;19.60;99.90
23347;DHT22;36852;45.466;11.066;2023-05-03T08:52:23;19.70;99.90
23347;DHT22;36852;45.466;11.066;2023-05-03T08:54:51;19.60;99.90
23347;DHT22;36852;45.466;11.066;2023-05-03T08:57:20;19.70;99.90
23347;DHT22;36852;45.466;11.066;2023-05-03T08:59:50;19.70;99.90
23347;DHT22;36852;45.466;11.066;2023-05-03T09:02:23;19.70;99.90
23347;DHT22;36852;45.466;11.066;2023-05-03T09:04:51;19.70;99.90
23347;DHT22;36852;45.466;11.066;2023-05-03T09:07:20;19.80;99.90
23347;DHT22;36852;45.466;11.066;2023-05-03T09:09:48;19.80;99.90
23347;DHT22;36852;45.466;11.066;2023-05-03T09:12:33;19.80;99.90
23347;DHT22;36852;45.466;11.066;2023-05-03T09:15:01;19.80;99.90
23347;DHT22;36852;45.466;11.066;2023-05-03T09:17:31;19.90;99.90
23347;DHT22;36852;45.466;11.066;2023-05-03T09:19:59;19.90;99.90
23347;DHT22;36852;45.466;11.066;2023-05-03T09:22:30;19.90;99.90
23347;DHT22;36852;45.466;11.066;2023-05-03T09:25:00;20.00;99.90
23347;DHT22;36852;45.466;11.066;2023-05-03T09:27:28;20.00;99.90
23347;DHT22;36852;45.466;11.066;2023-05-03T09:30:16;20.10;99.90
23347;DHT22;36852;45.466;11.066;2023-05-03T09:32:51;20.10;99.90
23347;DHT22;36852;45.466;11.066;2023-05-03T09:35:19;20.20;99.90
23347;DHT22;36852;45.466;11.066;2023-05-03T09:37:47;20.30;99.90
23347;DHT22;36852;45.466;11.066;2023-05-03T09:43:09;20.30;99.90
23347;DHT22;36852;45.466;11.066;2023-05-03T09:45:38;20.30;99.90
23347;DHT22;36852;45.466;11.066;2023-05-03T09:48:06;20.30;99.90
23347;DHT22;36852;45.466;11.066;2023-05-03T09:50:37;20.30;99.90
23347;DHT22;36852;45.466;11.066;2023-05-03T09:53:06;20.20;99.90
23347;DHT22;36852;45.466;11.066;2023-05-03T09:55:35;20.20;99.90
23347;DHT22;36852;45.466;11.066;2023-05-03T09:58:05;20.30;99.90
23347;DHT22;36852;45.466;11.066;2023-05-03T10:00:35;20.30;99.90
23347;DHT22;36852;45.466;11.066;2023-05-03T10:03:08;20.30;99.90
23347;DHT22;36852;45.466;11.066;2023-05-03T10:05:47;20.30;99.90
23347;DHT22;36852;45.466;11.066;2023-05-03T10:08:33;20.30;99.90
23347;DHT22;36852;45.466;11.066;2023-05-03T10:11:03;20.20;99.90
23347;DHT22;36852;45.466;11.066;2023-05-03T10:13:34;20.30;99.90
23347;DHT22;36852;45.466;11.066;2023-05-03T10:16:05;20.30;99.90
23347;DHT22;36852;45.466;11.066;2023-05-03T10:18:46;20.40;99.90
23347;DHT22;36852;45.466;11.066;2023-05-03T10:21:28;20.40;99.90
23347;DHT22;36852;45.466;11.066;2023-05-03T10:24:11;20.50;99.90
23347;DHT22;36852;45.466;11.066;2023-05-03T10:26:43;20.60;99.90
23347;DHT22;36852;45.466;11.066;2023-05-03T10:34:46;20.60;99.90
23347;DHT22;36852;45.466;11.066;2023-05-03T10:37:14;20.70;99.90
23347;DHT22;36852;45.466;11.066;2023-05-03T10:39:43;20.80;99.90
23347;DHT22;36852;45.466;11.066;2023-05-03T10:42:11;20.80;99.90
23347;DHT22;36852;45.466;11.066;2023-05-03T10:44:51;20.90;99.80
23347;DHT22;36852;45.466;11.066;2023-05-03T10:47:22;21.00;99.70
23347;DHT22;36852;45.466;11.066;2023-05-03T10:52:46;21.10;98.80
23347;DHT22;36852;45.466;11.066;2023-05-03T10:55:17;21.10;99.10
23347;DHT22;36852;45.466;11.066;2023-05-03T10:57:47;21.10;98.00
23347;DHT22;36852;45.466;11.066;2023-05-03T11:00:36;21.10;99.20
23347;DHT22;36852;45.466;11.066;2023-05-03T11:06:09;21.10;98.40
23347;DHT22;36852;45.466;11.066;2023-05-03T11:08:37;21.10;98.90
23347;DHT22;36852;45.466;11.066;2023-05-03T11:11:05;21.10;98.30
23347;DHT22;36852;45.466;11.066;2023-05-03T11:13:36;21.10;99.30
23347;DHT22;36852;45.466;11.066;2023-05-03T11:16:05;21.10;98.70
23347;DHT22;36852;45.466;11.066;2023-05-03T11:18:34;21.10;99.10
23347;DHT22;36852;45.466;11.066;2023-05-03T11:21:02;21.10;98.60
23347;DHT22;36852;45.466;11.066;2023-05-03T11:23:31;21.10;98.90
23347;DHT22;36852;45.466;11.066;2023-05-03T11:25:59;21.20;98.60
23347;DHT22;36852;45.466;11.066;2023-05-03T11:28:27;21.30;98.50
23347;DHT22;36852;45.466;11.066;2023-05-03T11:30:55;21.30;97.90
23347;DHT22;36852;45.466;11.066;2023-05-03T11:33:23;21.30;98.40
23347;DHT22;36852;45.466;11.066;2023-05-03T11:35:54;21.20;98.00
23347;DHT22;36852;45.466;11.066;2023-05-03T11:38:22;21.20;97.90
23347;DHT22;36852;45.466;11.066;2023-05-03T11:40:50;21.10;97.80
23347;DHT22;36852;45.466;11.066;2023-05-03T11:43:18;21.20;98.40
23347;DHT22;36852;45.466;11.066;2023-05-03T11:45:47;21.30;98.50
23347;DHT22;36852;45.466;11.066;2023-05-03T11:48:15;21.30;98.10
23347;DHT22;36852;45.466;11.066;2023-05-03T11:50:52;21.40;97.70
23347;DHT22;36852;45.466;11.066;2023-05-03T11:53:24;21.50;97.10
23347;DHT22;36852;45.466;11.066;2023-05-03T11:55:53;21.50;97.80
23347;DHT22;36852;45.466;11.066;2023-05-03T11:58:23;21.60;98.00
23347;DHT22;36852;45.466;11.066;2023-05-03T12:00:54;21.60;97.60
23347;DHT22;36852;45.466;11.066;2023-05-03T12:03:26;21.60;97.80
23347;DHT22;36852;45.466;11.066;2023-05-03T12:06:03;21.60;97.90
23347;DHT22;36852;45.466;11.066;2023-05-03T12:08:34;21.70;97.30
23347;DHT22;36852;45.466;11.066;2023-05-03T12:11:05;21.70;97.90
23347;DHT22;36852;45.466;11.066;2023-05-03T12:13:35;21.70;96.60
23347;DHT22;36852;45.466;11.066;2023-05-03T12:16:07;21.80;96.40
23347;DHT22;36852;45.466;11.066;2023-05-03T12:18:55;21.80;97.00
23347;DHT22;36852;45.466;11.066;2023-05-03T12:21:44;21.80;96.50
23347;DHT22;36852;45.466;11.066;2023-05-03T12:24:14;21.80;97.70
23347;DHT22;36852;45.466;11.066;2023-05-03T12:26:45;21.80;97.80
23347;DHT22;36852;45.466;11.066;2023-05-03T12:29:15;21.80;98.50
23347;DHT22;36852;45.466;11.066;2023-05-03T12:31:44;21.80;98.80
23347;DHT22;36852;45.466;11.066;2023-05-03T12:34:14;21.80;98.50
23347;DHT22;36852;45.466;11.066;2023-05-03T12:36:44;21.90;98.30
23347;DHT22;36852;45.466;11.066;2023-05-03T12:39:15;21.90;98.20
23347;DHT22;36852;45.466;11.066;2023-05-03T12:41:45;22.00;98.50
23347;DHT22;36852;45.466;11.066;2023-05-03T12:44:18;22.00;98.10
23347;DHT22;36852;45.466;11.066;2023-05-03T12:46:47;22.10;98.10
23347;DHT22;36852;45.466;11.066;2023-05-03T12:49:18;22.10;98.60
23347;DHT22;36852;45.466;11.066;2023-05-03T12:51:46;22.20;98.90
23347;DHT22;36852;45.466;11.066;2023-05-03T12:54:15;22.20;98.30
23347;DHT22;36852;45.466;11.066;2023-05-03T12:56:45;22.20;98.50
23347;DHT22;36852;45.466;11.066;2023-05-03T12:59:18;22.20;98.30
23347;DHT22;36852;45.466;11.066;2023-05-03T13:01:47;22.20;98.40
23347;DHT22;36852;45.466;11.066;2023-05-03T13:04:17;22.10;98.90
23347;DHT22;36852;45.466;11.066;2023-05-03T13:06:48;22.10;99.10
23347;DHT22;36852;45.466;11.066;2023-05-03T13:09:18;22.10;99.40
23347;DHT22;36852;45.466;11.066;2023-05-03T13:11:51;22.20;99.70
23347;DHT22;36852;45.466;11.066;2023-05-03T13:14:20;22.40;99.80
23347;DHT22;36852;45.466;11.066;2023-05-03T13:16:48;22.50;99.50
23347;DHT22;36852;45.466;11.066;2023-05-03T13:19:16;22.80;98.30
23347;DHT22;36852;45.466;11.066;2023-05-03T13:21:46;22.80;96.60
23347;DHT22;36852;45.466;11.066;2023-05-03T13:24:14;22.90;97.30
23347;DHT22;36852;45.466;11.066;2023-05-03T13:26:43;23.10;97.00
23347;DHT22;36852;45.466;11.066;2023-05-03T13:29:10;23.40;96.80
23347;DHT22;36852;45.466;11.066;2023-05-03T13:31:39;23.60;96.50
23347;DHT22;36852;45.466;11.066;2023-05-03T13:34:07;23.70;95.60
23347;DHT22;36852;45.466;11.066;2023-05-03T13:36:35;23.70;95.00
23347;DHT22;36852;45.466;11.066;2023-05-03T13:39:04;23.40;94.80
23347;DHT22;36852;45.466;11.066;2023-05-03T13:41:33;23.30;95.30
23347;DHT22;36852;45.466;11.066;2023-05-03T13:44:03;23.10;95.50
23347;DHT22;36852;45.466;11.066;2023-05-03T13:46:33;22.90;95.90
23347;DHT22;36852;45.466;11.066;2023-05-03T13:49:02;22.80;96.40
23347;DHT22;36852;45.466;11.066;2023-05-03T13:51:33;22.80;97.20
23347;DHT22;36852;45.466;11.066;2023-05-03T13:54:03;22.70;97.90
23347;DHT22;36852;45.466;11.066;2023-05-03T13:56:31;22.70;98.00
23347;DHT22;36852;45.466;11.066;2023-05-03T13:58:59;22.70;97.60
23347;DHT22;36852;45.466;11.066;2023-05-03T14:01:27;22.60;97.80
23347;DHT22;36852;45.466;11.066;2023-05-03T14:03:55;22.60;97.90
23347;DHT22;36852;45.466;11.066;2023-05-03T14:06:24;22.60;97.90
23347;DHT22;36852;45.466;11.066;2023-05-03T14:08:52;22.60;97.50
23347;DHT22;36852;45.466;11.066;2023-05-03T14:11:24;22.50;96.90
23347;DHT22;36852;45.466;11.066;2023-05-03T14:13:52;22.50;97.50
23347;DHT22;36852;45.466;11.066;2023-05-03T14:16:23;22.40;97.30
23347;DHT22;36852;45.466;11.066;2023-05-03T14:18:53;22.40;97.00
23347;DHT22;36852;45.466;11.066;2023-05-03T14:21:20;22.40;97.70
23347;DHT22;36852;45.466;11.066;2023-05-03T14:23:49;22.30;99.00
23347;DHT22;36852;45.466;11.066;2023-05-03T14:26:18;22.30;99.00
23347;DHT22;36852;45.466;11.066;2023-05-03T14:28:46;22.20;99.20
23347;DHT22;36852;45.466;11.066;2023-05-03T14:31:14;22.20;99.10
23347;DHT22;36852;45.466;11.066;2023-05-03T14:33:43;22.10;98.60
23347;DHT22;36852;45.466;11.066;2023-05-03T14:36:11;22.10;97.60
23347;DHT22;36852;45.466;11.066;2023-05-03T14:38:38;21.90;96.70
23347;DHT22;36852;45.466;11.066;2023-05-03T14:41:06;21.90;97.50
23347;DHT22;36852;45.466;11.066;2023-05-03T14:43:36;21.90;98.00
23347;DHT22;36852;45.466;11.066;2023-05-03T14:46:04;21.80;97.90
23347;DHT22;36852;45.466;11.066;2023-05-03T14:48:32;21.80;98.40
23347;DHT22;36852;45.466;11.066;2023-05-03T14:51:01;21.80;99.20
23347;DHT22;36852;45.466;11.066;2023-05-03T14:53:29;21.80;99.90
23347;DHT22;36852;45.466;11.066;2023-05-03T14:55:56;21.80;99.90
23347;DHT22;36852;45.466;11.066;2023-05-03T14:58:24;21.70;99.90
23347;DHT22;36852;45.466;11.066;2023-05-03T15:00:52;21.60;99.90
23347;DHT22;36852;45.466;11.066;2023-05-03T15:03:21;21.60;99.90
23347;DHT22;36852;45.466;11.066;2023-05-03T15:05:49;21.50;99.90
23347;DHT22;36852;45.466;11.066;2023-05-03T15:10:59;21.20;99.90
23347;DHT22;36852;45.466;11.066;2023-05-03T15:13:27;21.10;99.90
23347;DHT22;36852;45.466;11.066;2023-05-03T15:15:55;21.10;99.90
23347;DHT22;36852;45.466;11.066;2023-05-03T15:18:23;21.00;99.90
23347;DHT22;36852;45.466;11.066;2023-05-03T15:20:52;20.90;99.90
23347;DHT22;36852;45.466;11.066;2023-05-03T15:23:21;20.80;99.90
23347;DHT22;36852;45.466;11.066;2023-05-03T15:25:49;20.80;99.90
23347;DHT22;36852;45.466;11.066;2023-05-03T15:28:17;20.80;99.90
23347;DHT22;36852;45.466;11.066;2023-05-03T15:30:47;20.70;99.90
23347;DHT22;36852;45.466;11.066;2023-05-03T15:33:15;20.70;99.90
23347;DHT22;36852;45.466;11.066;2023-05-03T15:35:43;20.70;99.90
23347;DHT22;36852;45.466;11.066;2023-05-03T15:38:10;20.80;99.90
23347;DHT22;36852;45.466;11.066;2023-05-03T15:40:39;20.80;99.90
23347;DHT22;36852;45.466;11.066;2023-05-03T15:43:07;20.80;99.90
23347;DHT22;36852;45.466;11.066;2023-05-03T15:45:35;20.80;99.90
23347;DHT22;36852;45.466;11.066;2023-05-03T15:48:04;20.90;99.90
23347;DHT22;36852;45.466;11.066;2023-05-03T15:50:35;21.00;99.90
23347;DHT22;36852;45.466;11.066;2023-05-03T15:53:03;21.10;99.90
23347;DHT22;36852;45.466;11.066;2023-05-03T15:55:32;21.20;99.90
23347;DHT22;36852;45.466;11.066;2023-05-03T15:58:00;21.30;99.90
23347;DHT22;36852;45.466;11.066;2023-05-03T16:00:29;21.40;99.90
23347;DHT22;36852;45.466;11.066;2023-05-03T16:02:57;21.50;99.90
23347;DHT22;36852;45.466;11.066;2023-05-03T16:05:25;21.70;99.90